sensor_id;sensor_type;location;lat;lon;timestamp;pressure;altitude;pressure_sealevel;temperature;humidity
84492;BME280;74718;40.778;21.400;2024-02-28T00:00:05;94161.67;;;9.75;68.73
84492;BME280;74718;40.778;21.400;2024-02-28T00:02:31;94159.70;;;9.79;68.65
84492;BME280;74718;40.778;21.400;2024-02-28T00:04:56;94161.19;;;9.84;68.76
84492;BME280;74718;40.778;21.400;2024-02-28T00:07:24;94166.61;;;9.91;68.73
84492;BME280;74718;40.778;21.400;2024-02-28T00:09:50;94167.87;;;9.94;68.34
84492;BME280;74718;40.778;21.400;2024-02-28T00:12:15;94164.67;;;9.90;68.35
84492;BME280;74718;40.778;21.400;2024-02-28T00:14:41;94167.73;;;9.90;68.12
84492;BME280;74718;40.778;21.400;2024-02-28T00:17:06;94165.18;;;9.82;68.34
84492;BME280;74718;40.778;21.400;2024-02-28T00:19:32;94161.92;;;9.81;68.50
84492;BME280;74718;40.778;21.400;2024-02-28T00:21:57;94160.09;;;9.84;68.66
84492;BME280;74718;40.778;21.400;2024-02-28T00:24:25;94164.25;;;9.86;68.49
84492;BME280;74718;40.778;21.400;2024-02-28T00:26:50;94166.24;;;9.93;68.43
84492;BME280;74718;40.778;21.400;2024-02-28T00:29:16;94168.30;;;10.01;68.64
84492;BME280;74718;40.778;21.400;2024-02-28T00:31:41;94165.90;;;10.05;68.33
84492;BME280;74718;40.778;21.400;2024-02-28T00:34:07;94165.18;;;10.09;68.47
84492;BME280;74718;40.778;21.400;2024-02-28T00:36:34;94167.03;;;10.12;68.48
84492;BME280;74718;40.778;21.400;2024-02-28T00:38:59;94161.81;;;10.11;68.37
84492;BME280;74718;40.778;21.400;2024-02-28T00:41:25;94159.61;;;10.14;68.45
84492;BME280;74718;40.778;21.400;2024-02-28T00:43:50;94157.80;;;10.19;68.21
84492;BME280;74718;40.778;21.400;2024-02-28T00:46:16;94156.89;;;10.23;67.94
84492;BME280;74718;40.778;21.400;2024-02-28T00:48:41;94157.64;;;10.18;67.89
84492;BME280;74718;40.778;21.400;2024-02-28T00:51:07;94158.49;;;10.09;68.15
84492;BME280;74718;40.778;21.400;2024-02-28T00:53:35;94163.48;;;10.06;68.12
84492;BME280;74718;40.778;21.400;2024-02-28T00:56:02;94165.19;;;9.96;68.48
84492;BME280;74718;40.778;21.400;2024-02-28T00:58:27;94162.07;;;9.94;68.40
84492;BME280;74718;40.778;21.400;2024-02-28T01:00:55;94161.48;;;9.94;68.35
84492;BME280;74718;40.778;21.400;2024-02-28T01:03:20;94158.20;;;9.89;68.48
84492;BME280;74718;40.778;21.400;2024-02-28T01:05:46;94158.18;;;9.83;68.92
84492;BME280;74718;40.778;21.400;2024-02-28T01:08:12;94153.17;;;9.78;69.27
84492;BME280;74718;40.778;21.400;2024-02-28T01:10:37;94152.49;;;9.75;69.25
84492;BME280;74718;40.778;21.400;2024-02-28T01:13:03;94146.75;;;9.70;69.41
84492;BME280;74718;40.778;21.400;2024-02-28T01:15:29;94147.12;;;9.69;69.28
84492;BME280;74718;40.778;21.400;2024-02-28T01:17:54;94142.86;;;9.70;69.44
84492;BME280;74718;40.778;21.400;2024-02-28T01:20:20;94142.92;;;9.76;69.28
84492;BME280;74718;40.778;21.400;2024-02-28T01:22:48;94139.43;;;9.76;69.21
84492;BME280;74718;40.778;21.400;2024-02-28T01:25:14;94137.80;;;9.71;69.17
84492;BME280;74718;40.778;21.400;2024-02-28T01:27:39;94140.85;;;9.68;69.13
84492;BME280;74718;40.778;21.400;2024-02-28T01:30:06;94141.05;;;9.61;69.48
84492;BME280;74718;40.778;21.400;2024-02-28T01:32:32;94138.64;;;9.57;69.60
84492;BME280;74718;40.778;21.400;2024-02-28T01:34:58;94143.89;;;9.60;69.66
84492;BME280;74718;40.778;21.400;2024-02-28T01:37:24;94142.67;;;9.62;69.65
84492;BME280;74718;40.778;21.400;2024-02-28T01:39:49;94141.30;;;9.60;70.07
84492;BME280;74718;40.778;21.400;2024-02-28T01:42:14;94144.41;;;9.62;70.00
84492;BME280;74718;40.778;21.400;2024-02-28T01:44:44;94140.79;;;9.66;70.20
84492;BME280;74718;40.778;21.400;2024-02-28T01:47:11;94138.55;;;9.71;70.14
84492;BME280;74718;40.778;21.400;2024-02-28T01:49:38;94141.50;;;9.75;69.91
84492;BME280;74718;40.778;21.400;2024-02-28T01:52:05;94141.65;;;9.73;69.70
84492;BME280;74718;40.778;21.400;2024-02-28T01:54:33;94141.27;;;9.72;69.66
84492;BME280;74718;40.778;21.400;2024-02-28T01:57:00;94135.07;;;9.72;69.74
84492;BME280;74718;40.778;21.400;2024-02-28T01:59:27;94136.21;;;9.77;69.65
84492;BME280;74718;40.778;21.400;2024-02-28T02:01:54;94131.00;;;9.77;69.56
84492;BME280;74718;40.778;21.400;2024-02-28T02:04:20;94131.58;;;9.77;69.66
84492;BME280;74718;40.778;21.400;2024-02-28T02:06:48;94130.96;;;9.76;69.46
84492;BME280;74718;40.778;21.400;2024-02-28T02:09:15;94129.48;;;9.77;70.00
84492;BME280;74718;40.778;21.400;2024-02-28T02:11:41;94130.58;;;9.78;69.67
84492;BME280;74718;40.778;21.400;2024-02-28T02:14:07;94131.27;;;9.78;69.96
84492;BME280;74718;40.778;21.400;2024-02-28T02:16:32;94133.80;;;9.78;69.97
84492;BME280;74718;40.778;21.400;2024-02-28T02:18:58;94130.33;;;9.73;70.01
84492;BME280;74718;40.778;21.400;2024-02-28T02:21:31;94134.12;;;9.72;69.89
84492;BME280;74718;40.778;21.400;2024-02-28T02:23:59;94135.23;;;9.70;70.17
84492;BME280;74718;40.778;21.400;2024-02-28T02:26:25;94131.16;;;9.70;69.96
84492;BME280;74718;40.778;21.400;2024-02-28T02:28:50;94130.53;;;9.70;69.98
84492;BME280;74718;40.778;21.400;2024-02-28T02:31:16;94127.43;;;9.71;69.67
84492;BME280;74718;40.778;21.400;2024-02-28T02:33:41;94124.33;;;9.68;69.70
84492;BME280;74718;40.778;21.400;2024-02-28T02:36:07;94124.11;;;9.66;69.86
84492;BME280;74718;40.778;21.400;2024-02-28T02:38:32;94131.42;;;9.65;70.02
84492;BME280;74718;40.778;21.400;2024-02-28T02:40:58;94133.52;;;9.67;70.11
84492;BME280;74718;40.778;21.400;2024-02-28T02:43:23;94131.17;;;9.69;70.33
84492;BME280;74718;40.778;21.400;2024-02-28T02:45:49;94129.38;;;9.80;70.16
84492;BME280;74718;40.778;21.400;2024-02-28T02:48:14;94128.38;;;9.92;69.66
84492;BME280;74718;40.778;21.400;2024-02-28T02:50:40;94131.06;;;10.00;69.77
84492;BME280;74718;40.778;21.400;2024-02-28T02:53:09;94133.45;;;10.01;69.70
84492;BME280;74718;40.778;21.400;2024-02-28T02:55:35;94127.63;;;9.98;69.45
84492;BME280;74718;40.778;21.400;2024-02-28T02:58:00;94130.48;;;9.96;69.67
84492;BME280;74718;40.778;21.400;2024-02-28T03:00:26;94132.11;;;9.91;69.68
84492;BME280;74718;40.778;21.400;2024-02-28T03:02:51;94135.39;;;9.86;69.74
84492;BME280;74718;40.778;21.400;2024-02-28T03:05:17;94139.00;;;9.80;69.55
84492;BME280;74718;40.778;21.400;2024-02-28T03:07:42;94139.80;;;9.71;69.80
84492;BME280;74718;40.778;21.400;2024-02-28T03:10:07;94138.39;;;9.69;69.94
84492;BME280;74718;40.778;21.400;2024-02-28T03:12:35;94139.91;;;9.74;69.93
84492;BME280;74718;40.778;21.400;2024-02-28T03:15:01;94137.06;;;9.80;70.12
84492;BME280;74718;40.778;21.400;2024-02-28T03:17:28;94138.59;;;9.79;70.07
84492;BME280;74718;40.778;21.400;2024-02-28T03:19:54;94134.73;;;9.78;70.30
84492;BME280;74718;40.778;21.400;2024-02-28T03:22:19;94137.38;;;9.77;70.24
84492;BME280;74718;40.778;21.400;2024-02-28T03:24:45;94140.55;;;9.73;70.44
84492;BME280;74718;40.778;21.400;2024-02-28T03:27:10;94145.44;;;9.72;70.08
84492;BME280;74718;40.778;21.400;2024-02-28T03:29:36;94144.75;;;9.70;70.06
84492;BME280;74718;40.778;21.400;2024-02-28T03:32:02;94148.64;;;9.69;70.20
84492;BME280;74718;40.778;21.400;2024-02-28T03:34:29;94151.38;;;9.67;70.18
84492;BME280;74718;40.778;21.400;2024-02-28T03:36:55;94155.33;;;9.67;69.91
84492;BME280;74718;40.778;21.400;2024-02-28T03:39:21;94152.74;;;9.68;70.21
84492;BME280;74718;40.778;21.400;2024-02-28T03:41:46;94153.60;;;9.70;70.15
84492;BME280;74718;40.778;21.400;2024-02-28T03:44:12;94155.86;;;9.75;70.44
84492;BME280;74718;40.778;21.400;2024-02-28T03:46:37;94157.12;;;9.79;70.25
84492;BME280;74718;40.778;21.400;2024-02-28T03:49:02;94160.77;;;9.84;70.45
84492;BME280;74718;40.778;21.400;2024-02-28T03:51:28;94159.71;;;9.85;70.44
84492;BME280;74718;40.778;21.400;2024-02-28T03:53:55;94169.89;;;9.88;70.32
84492;BME280;74718;40.778;21.400;2024-02-28T03:56:24;94168.95;;;9.91;70.11
84492;BME280;74718;40.778;21.400;2024-02-28T03:58:51;94173.27;;;9.88;70.24
84492;BME280;74718;40.778;21.400;2024-02-28T04:01:17;94172.61;;;9.84;70.22
84492;BME280;74718;40.778;21.400;2024-02-28T04:03:43;94171.60;;;9.81;70.24
84492;BME280;74718;40.778;21.400;2024-02-28T04:06:08;94173.86;;;9.79;70.69
84492;BME280;74718;40.778;21.400;2024-02-28T04:08:34;94172.14;;;9.82;71.09
84492;BME280;74718;40.778;21.400;2024-02-28T04:10:59;94171.51;;;9.90;70.63
84492;BME280;74718;40.778;21.400;2024-02-28T04:13:25;94172.83;;;9.95;70.71
84492;BME280;74718;40.778;21.400;2024-02-28T04:15:51;94168.52;;;9.99;70.79
84492;BME280;74718;40.778;21.400;2024-02-28T04:18:16;94162.41;;;10.02;70.68
84492;BME280;74718;40.778;21.400;2024-02-28T04:20:42;94164.77;;;10.06;70.73
84492;BME280;74718;40.778;21.400;2024-02-28T04:23:07;94162.71;;;10.11;70.69
84492;BME280;74718;40.778;21.400;2024-02-28T04:25:32;94165.83;;;10.16;70.70
84492;BME280;74718;40.778;21.400;2024-02-28T04:27:59;94162.66;;;10.15;70.49
84492;BME280;74718;40.778;21.400;2024-02-28T04:30:24;94164.88;;;10.12;70.54
84492;BME280;74718;40.778;21.400;2024-02-28T04:32:50;94165.19;;;10.07;70.78
84492;BME280;74718;40.778;21.400;2024-02-28T04:35:16;94161.55;;;10.09;70.55
84492;BME280;74718;40.778;21.400;2024-02-28T04:37:45;94160.66;;;10.12;70.75
84492;BME280;74718;40.778;21.400;2024-02-28T04:40:11;94158.30;;;10.15;70.97
84492;BME280;74718;40.778;21.400;2024-02-28T04:42:37;94164.13;;;10.18;70.75
84492;BME280;74718;40.778;21.400;2024-02-28T04:45:03;94165.60;;;10.19;70.94
84492;BME280;74718;40.778;21.400;2024-02-28T04:47:29;94163.33;;;10.23;71.23
84492;BME280;74718;40.778;21.400;2024-02-28T04:49:56;94164.79;;;10.28;71.27
84492;BME280;74718;40.778;21.400;2024-02-28T04:52:22;94167.69;;;10.32;71.07
84492;BME280;74718;40.778;21.400;2024-02-28T04:54:48;94168.64;;;10.35;71.09
84492;BME280;74718;40.778;21.400;2024-02-28T04:57:13;94170.52;;;10.40;71.27
84492;BME280;74718;40.778;21.400;2024-02-28T04:59:41;94171.73;;;10.40;71.10
84492;BME280;74718;40.778;21.400;2024-02-28T05:02:07;94167.64;;;10.33;71.21
84492;BME280;74718;40.778;21.400;2024-02-28T05:04:32;94165.90;;;10.33;71.47
84492;BME280;74718;40.778;21.400;2024-02-28T05:06:58;94164.85;;;10.34;71.31
84492;BME280;74718;40.778;21.400;2024-02-28T05:09:23;94163.53;;;10.36;71.45
84492;BME280;74718;40.778;21.400;2024-02-28T05:11:48;94167.23;;;10.38;71.37
84492;BME280;74718;40.778;21.400;2024-02-28T05:14:14;94163.14;;;10.40;71.77
84492;BME280;74718;40.778;21.400;2024-02-28T05:16:39;94160.66;;;10.42;71.60
84492;BME280;74718;40.778;21.400;2024-02-28T05:19:05;94159.50;;;10.48;71.67
84492;BME280;74718;40.778;21.400;2024-02-28T05:21:30;94160.88;;;10.51;71.57
84492;BME280;74718;40.778;21.400;2024-02-28T05:23:56;94164.40;;;10.48;71.41
84492;BME280;74718;40.778;21.400;2024-02-28T05:26:21;94167.45;;;10.43;71.73
84492;BME280;74718;40.778;21.400;2024-02-28T05:28:46;94169.20;;;10.41;71.55
84492;BME280;74718;40.778;21.400;2024-02-28T05:31:23;94169.76;;;10.38;71.82
84492;BME280;74718;40.778;21.400;2024-02-28T05:33:53;94178.00;;;10.41;71.99
84492;BME280;74718;40.778;21.400;2024-02-28T05:36:29;94178.97;;;10.38;71.93
84492;BME280;74718;40.778;21.400;2024-02-28T05:38:56;94180.44;;;10.31;71.89
84492;BME280;74718;40.778;21.400;2024-02-28T05:41:22;94185.45;;;10.32;72.40
84492;BME280;74718;40.778;21.400;2024-02-28T05:43:49;94188.71;;;10.33;72.25
84492;BME280;74718;40.778;21.400;2024-02-28T05:46:15;94189.67;;;10.32;72.42
84492;BME280;74718;40.778;21.400;2024-02-28T05:48:41;94195.15;;;10.31;72.54
84492;BME280;74718;40.778;21.400;2024-02-28T05:51:07;94195.57;;;10.36;72.63
84492;BME280;74718;40.778;21.400;2024-02-28T05:53:33;94197.35;;;10.41;72.65
84492;BME280;74718;40.778;21.400;2024-02-28T05:56:02;94203.36;;;10.43;72.75
84492;BME280;74718;40.778;21.400;2024-02-28T05:58:28;94205.36;;;10.40;73.08
84492;BME280;74718;40.778;21.400;2024-02-28T06:00:53;94209.75;;;10.38;72.88
84492;BME280;74718;40.778;21.400;2024-02-28T06:03:19;94211.05;;;10.41;72.93
84492;BME280;74718;40.778;21.400;2024-02-28T06:05:45;94211.94;;;10.41;72.44
84492;BME280;74718;40.778;21.400;2024-02-28T06:08:10;94219.27;;;10.39;73.00
84492;BME280;74718;40.778;21.400;2024-02-28T06:10:36;94223.70;;;10.43;73.03
84492;BME280;74718;40.778;21.400;2024-02-28T06:13:02;94228.77;;;10.45;73.27
84492;BME280;74718;40.778;21.400;2024-02-28T06:15:27;94228.66;;;10.48;73.53
84492;BME280;74718;40.778;21.400;2024-02-28T06:17:56;94233.56;;;10.50;73.54
84492;BME280;74718;40.778;21.400;2024-02-28T06:20:22;94234.25;;;10.49;73.46
84492;BME280;74718;40.778;21.400;2024-02-28T06:22:47;94232.88;;;10.48;73.50
84492;BME280;74718;40.778;21.400;2024-02-28T06:25:13;94236.09;;;10.53;73.87
84492;BME280;74718;40.778;21.400;2024-02-28T06:27:47;94238.08;;;10.59;73.76
84492;BME280;74718;40.778;21.400;2024-02-28T06:30:13;94238.71;;;10.62;73.47
84492;BME280;74718;40.778;21.400;2024-02-28T06:32:39;94237.19;;;10.64;73.18
84492;BME280;74718;40.778;21.400;2024-02-28T06:35:05;94239.77;;;10.66;73.08
84492;BME280;74718;40.778;21.400;2024-02-28T06:37:33;94240.35;;;10.69;73.34
84492;BME280;74718;40.778;21.400;2024-02-28T06:39:58;94239.16;;;10.74;73.30
84492;BME280;74718;40.778;21.400;2024-02-28T06:42:24;94243.45;;;10.79;73.33
84492;BME280;74718;40.778;21.400;2024-02-28T06:44:49;94242.96;;;10.84;73.26
84492;BME280;74718;40.778;21.400;2024-02-28T06:47:15;94248.38;;;10.87;72.94
84492;BME280;74718;40.778;21.400;2024-02-28T06:49:40;94246.89;;;10.90;73.10
84492;BME280;74718;40.778;21.400;2024-02-28T06:52:06;94246.78;;;10.90;73.19
84492;BME280;74718;40.778;21.400;2024-02-28T06:54:31;94252.21;;;10.90;72.94
84492;BME280;74718;40.778;21.400;2024-02-28T06:56:57;94251.64;;;10.89;73.09
84492;BME280;74718;40.778;21.400;2024-02-28T06:59:23;94256.86;;;10.88;72.86
84492;BME280;74718;40.778;21.400;2024-02-28T07:01:49;94258.04;;;10.87;72.74
84492;BME280;74718;40.778;21.400;2024-02-28T07:04:14;94256.31;;;10.86;73.19
84492;BME280;74718;40.778;21.400;2024-02-28T07:06:40;94260.08;;;10.87;73.30
84492;BME280;74718;40.778;21.400;2024-02-28T07:09:08;94257.91;;;10.88;73.46
84492;BME280;74718;40.778;21.400;2024-02-28T07:11:34;94260.55;;;10.90;73.99
84492;BME280;74718;40.778;21.400;2024-02-28T07:14:00;94256.49;;;10.95;73.86
84492;BME280;74718;40.778;21.400;2024-02-28T07:16:31;94256.39;;;10.99;74.18
84492;BME280;74718;40.778;21.400;2024-02-28T07:19:00;94261.81;;;11.01;73.92
84492;BME280;74718;40.778;21.400;2024-02-28T07:21:26;94261.84;;;11.04;73.72
84492;BME280;74718;40.778;21.400;2024-02-28T07:23:51;94262.69;;;11.05;73.56
84492;BME280;74718;40.778;21.400;2024-02-28T07:26:17;94259.15;;;11.05;73.43
84492;BME280;74718;40.778;21.400;2024-02-28T07:28:43;94263.91;;;11.03;73.73
84492;BME280;74718;40.778;21.400;2024-02-28T07:31:18;94262.64;;;11.03;73.54
84492;BME280;74718;40.778;21.400;2024-02-28T07:33:45;94256.25;;;11.05;73.84
84492;BME280;74718;40.778;21.400;2024-02-28T07:36:11;94255.88;;;11.08;73.71
84492;BME280;74718;40.778;21.400;2024-02-28T07:38:37;94257.25;;;11.12;73.80
84492;BME280;74718;40.778;21.400;2024-02-28T07:41:03;94257.98;;;11.16;73.81
84492;BME280;74718;40.778;21.400;2024-02-28T07:43:28;94260.38;;;11.19;73.54
84492;BME280;74718;40.778;21.400;2024-02-28T07:45:58;94259.80;;;11.19;73.31
84492;BME280;74718;40.778;21.400;2024-02-28T07:48:24;94262.17;;;11.21;72.99
84492;BME280;74718;40.778;21.400;2024-02-28T07:50:49;94261.21;;;11.27;72.63
84492;BME280;74718;40.778;21.400;2024-02-28T07:53:16;94263.56;;;11.33;72.55
84492;BME280;74718;40.778;21.400;2024-02-28T07:55:42;94265.92;;;11.37;72.48
84492;BME280;74718;40.778;21.400;2024-02-28T07:58:07;94261.33;;;11.37;72.46
84492;BME280;74718;40.778;21.400;2024-02-28T08:00:34;94259.48;;;11.37;72.38
84492;BME280;74718;40.778;21.400;2024-02-28T08:03:00;94259.84;;;11.42;72.33
84492;BME280;74718;40.778;21.400;2024-02-28T08:05:25;94256.11;;;11.49;72.13
84492;BME280;74718;40.778;21.400;2024-02-28T08:07:51;94255.15;;;11.52;71.69
84492;BME280;74718;40.778;21.400;2024-02-28T08:10:19;94255.09;;;11.53;71.81
84492;BME280;74718;40.778;21.400;2024-02-28T08:12:45;94251.71;;;11.53;71.63
84492;BME280;74718;40.778;21.400;2024-02-28T08:15:10;94251.55;;;11.54;71.41
84492;BME280;74718;40.778;21.400;2024-02-28T08:17:36;94250.70;;;11.52;71.25
84492;BME280;74718;40.778;21.400;2024-02-28T08:20:03;94249.75;;;11.47;71.14
84492;BME280;74718;40.778;21.400;2024-02-28T08:22:30;94251.02;;;11.44;70.96
84492;BME280;74718;40.778;21.400;2024-02-28T08:24:56;94253.52;;;11.41;70.99
84492;BME280;74718;40.778;21.400;2024-02-28T08:27:21;94253.36;;;11.40;70.84
84492;BME280;74718;40.778;21.400;2024-02-28T08:29:49;94254.09;;;11.43;71.01
84492;BME280;74718;40.778;21.400;2024-02-28T08:32:15;94250.02;;;11.45;70.78
84492;BME280;74718;40.778;21.400;2024-02-28T08:34:44;94251.76;;;11.46;70.99
84492;BME280;74718;40.778;21.400;2024-02-28T08:37:10;94251.80;;;11.49;71.06
84492;BME280;74718;40.778;21.400;2024-02-28T08:39:36;94254.67;;;11.51;70.65
84492;BME280;74718;40.778;21.400;2024-02-28T08:42:01;94254.77;;;11.53;70.57
84492;BME280;74718;40.778;21.400;2024-02-28T08:44:26;94254.72;;;11.52;70.65
84492;BME280;74718;40.778;21.400;2024-02-28T08:46:52;94257.52;;;11.54;70.77
84492;BME280;74718;40.778;21.400;2024-02-28T08:49:17;94254.81;;;11.57;70.36
84492;BME280;74718;40.778;21.400;2024-02-28T08:51:43;94256.19;;;11.57;70.31
84492;BME280;74718;40.778;21.400;2024-02-28T08:54:08;94261.42;;;11.57;70.30
84492;BME280;74718;40.778;21.400;2024-02-28T08:56:34;94257.08;;;11.60;70.37
84492;BME280;74718;40.778;21.400;2024-02-28T08:58:59;94254.73;;;11.64;70.24
84492;BME280;74718;40.778;21.400;2024-02-28T09:01:25;94252.02;;;11.71;70.17
84492;BME280;74718;40.778;21.400;2024-02-28T09:03:50;94252.67;;;11.81;70.07
84492;BME280;74718;40.778;21.400;2024-02-28T09:06:16;94249.30;;;11.90;69.78
84492;BME280;74718;40.778;21.400;2024-02-28T09:08:41;94250.14;;;11.98;69.44
84492;BME280;74718;40.778;21.400;2024-02-28T09:11:07;94248.73;;;12.04;69.13
84492;BME280;74718;40.778;21.400;2024-02-28T09:13:33;94252.27;;;12.05;69.07
84492;BME280;74718;40.778;21.400;2024-02-28T09:15:58;94260.30;;;12.05;68.88
84492;BME280;74718;40.778;21.400;2024-02-28T09:18:24;94260.42;;;12.03;68.71
84492;BME280;74718;40.778;21.400;2024-02-28T09:20:49;94260.37;;;12.03;68.66
84492;BME280;74718;40.778;21.400;2024-02-28T09:23:15;94259.77;;;12.05;68.53
84492;BME280;74718;40.778;21.400;2024-02-28T09:25:40;94260.73;;;12.04;68.31
84492;BME280;74718;40.778;21.400;2024-02-28T09:28:06;94260.09;;;12.07;68.31
84492;BME280;74718;40.778;21.400;2024-02-28T09:30:31;94256.19;;;12.12;68.22
84492;BME280;74718;40.778;21.400;2024-02-28T09:32:57;94257.16;;;12.16;68.34
84492;BME280;74718;40.778;21.400;2024-02-28T09:35:22;94250.42;;;12.21;68.34
84492;BME280;74718;40.778;21.400;2024-02-28T09:37:48;94260.77;;;12.22;68.08
84492;BME280;74718;40.778;21.400;2024-02-28T09:40:13;94262.44;;;12.16;68.00
84492;BME280;74718;40.778;21.400;2024-02-28T09:42:39;94264.34;;;12.10;68.20
84492;BME280;74718;40.778;21.400;2024-02-28T09:45:08;94264.85;;;12.03;68.28
84492;BME280;74718;40.778;21.400;2024-02-28T09:47:38;94263.34;;;12.01;68.47
84492;BME280;74718;40.778;21.400;2024-02-28T09:50:05;94268.67;;;12.01;68.30
84492;BME280;74718;40.778;21.400;2024-02-28T09:52:31;94263.58;;;11.96;68.42
84492;BME280;74718;40.778;21.400;2024-02-28T09:54:59;94264.67;;;11.90;68.63
84492;BME280;74718;40.778;21.400;2024-02-28T09:57:25;94264.63;;;11.96;68.72
84492;BME280;74718;40.778;21.400;2024-02-28T09:59:55;94263.55;;;12.03;68.78
84492;BME280;74718;40.778;21.400;2024-02-28T10:02:23;94256.98;;;12.05;68.79
84492;BME280;74718;40.778;21.400;2024-02-28T10:04:49;94253.25;;;12.10;68.86
84492;BME280;74718;40.778;21.400;2024-02-28T10:07:16;94247.44;;;12.16;68.81
84492;BME280;74718;40.778;21.400;2024-02-28T10:09:42;94248.02;;;12.24;68.59
84492;BME280;74718;40.778;21.400;2024-02-28T10:12:07;94248.14;;;12.28;68.60
84492;BME280;74718;40.778;21.400;2024-02-28T10:14:33;94246.96;;;12.31;68.38
84492;BME280;74718;40.778;21.400;2024-02-28T10:16:59;94241.34;;;12.32;68.24
84492;BME280;74718;40.778;21.400;2024-02-28T10:19:24;94238.50;;;12.32;68.27
84492;BME280;74718;40.778;21.400;2024-02-28T10:21:50;94238.38;;;12.36;68.33
84492;BME280;74718;40.778;21.400;2024-02-28T10:24:16;94228.77;;;12.38;68.30
84492;BME280;74718;40.778;21.400;2024-02-28T10:26:43;94222.14;;;12.42;68.24
84492;BME280;74718;40.778;21.400;2024-02-28T10:29:09;94221.40;;;12.48;68.35
84492;BME280;74718;40.778;21.400;2024-02-28T10:31:34;94218.19;;;12.54;68.09
84492;BME280;74718;40.778;21.400;2024-02-28T10:34:01;94209.34;;;12.55;68.05
84492;BME280;74718;40.778;21.400;2024-02-28T10:36:30;94206.88;;;12.62;67.98
84492;BME280;74718;40.778;21.400;2024-02-28T10:38:57;94211.21;;;12.64;67.89
84492;BME280;74718;40.778;21.400;2024-02-28T10:41:25;94211.98;;;12.65;67.84
84492;BME280;74718;40.778;21.400;2024-02-28T10:43:51;94212.58;;;12.65;67.52
84492;BME280;74718;40.778;21.400;2024-02-28T10:46:20;94213.77;;;12.61;67.34
84492;BME280;74718;40.778;21.400;2024-02-28T10:48:46;94211.37;;;12.52;67.42
84492;BME280;74718;40.778;21.400;2024-02-28T10:51:20;94211.99;;;12.46;67.48
84492;BME280;74718;40.778;21.400;2024-02-28T10:53:50;94210.92;;;12.48;67.60
84492;BME280;74718;40.778;21.400;2024-02-28T10:56:19;94204.96;;;12.51;67.59
84492;BME280;74718;40.778;21.400;2024-02-28T10:58:52;94199.58;;;12.59;67.59
84492;BME280;74718;40.778;21.400;2024-02-28T11:01:21;94196.27;;;12.67;67.51
84492;BME280;74718;40.778;21.400;2024-02-28T11:03:48;94200.70;;;12.70;67.45
84492;BME280;74718;40.778;21.400;2024-02-28T11:06:20;94199.61;;;12.73;67.52
84492;BME280;74718;40.778;21.400;2024-02-28T11:08:47;94193.88;;;12.78;67.08
84492;BME280;74718;40.778;21.400;2024-02-28T11:11:20;94189.23;;;12.83;66.86
84492;BME280;74718;40.778;21.400;2024-02-28T11:13:55;94190.84;;;12.87;66.49
84492;BME280;74718;40.778;21.400;2024-02-28T11:16:31;94186.65;;;12.92;66.30
84492;BME280;74718;40.778;21.400;2024-02-28T11:18:58;94187.51;;;12.96;66.01
84492;BME280;74718;40.778;21.400;2024-02-28T11:21:25;94189.48;;;12.98;65.88
84492;BME280;74718;40.778;21.400;2024-02-28T11:23:52;94186.63;;;12.99;65.96
84492;BME280;74718;40.778;21.400;2024-02-28T11:26:18;94183.73;;;12.97;65.83
84492;BME280;74718;40.778;21.400;2024-02-28T11:28:44;94183.23;;;13.00;65.93
84492;BME280;74718;40.778;21.400;2024-02-28T11:31:09;94183.05;;;13.02;65.93
84492;BME280;74718;40.778;21.400;2024-02-28T11:33:37;94176.36;;;13.05;65.97
84492;BME280;74718;40.778;21.400;2024-02-28T11:36:04;94179.23;;;13.06;66.13
84492;BME280;74718;40.778;21.400;2024-02-28T11:38:29;94183.11;;;13.10;66.04
84492;BME280;74718;40.778;21.400;2024-02-28T11:40:55;94185.83;;;13.15;65.96
84492;BME280;74718;40.778;21.400;2024-02-28T11:43:21;94176.88;;;13.17;65.77
84492;BME280;74718;40.778;21.400;2024-02-28T11:45:46;94179.85;;;13.14;65.60
84492;BME280;74718;40.778;21.400;2024-02-28T11:48:13;94181.19;;;13.12;65.69
84492;BME280;74718;40.778;21.400;2024-02-28T11:50:39;94184.29;;;13.09;65.44
84492;BME280;74718;40.778;21.400;2024-02-28T11:53:06;94179.40;;;13.06;65.48
84492;BME280;74718;40.778;21.400;2024-02-28T11:55:32;94174.89;;;13.03;65.46
84492;BME280;74718;40.778;21.400;2024-02-28T11:57:58;94174.23;;;13.01;65.42
84492;BME280;74718;40.778;21.400;2024-02-28T12:00:23;94172.65;;;13.00;65.40
84492;BME280;74718;40.778;21.400;2024-02-28T12:02:48;94172.92;;;12.98;65.26
84492;BME280;74718;40.778;21.400;2024-02-28T12:05:14;94168.20;;;13.00;65.47
84492;BME280;74718;40.778;21.400;2024-02-28T12:07:41;94162.35;;;13.07;65.45
84492;BME280;74718;40.778;21.400;2024-02-28T12:10:08;94155.25;;;13.13;65.59
84492;BME280;74718;40.778;21.400;2024-02-28T12:12:34;94149.61;;;13.21;65.59
84492;BME280;74718;40.778;21.400;2024-02-28T12:15:00;94150.27;;;13.31;65.26
84492;BME280;74718;40.778;21.400;2024-02-28T12:17:26;94148.08;;;13.39;65.15
84492;BME280;74718;40.778;21.400;2024-02-28T12:19:52;94147.40;;;13.40;64.82
84492;BME280;74718;40.778;21.400;2024-02-28T12:22:18;94144.69;;;13.41;64.69
84492;BME280;74718;40.778;21.400;2024-02-28T12:24:43;94146.10;;;13.43;64.73
84492;BME280;74718;40.778;21.400;2024-02-28T12:27:10;94142.48;;;13.44;64.80
84492;BME280;74718;40.778;21.400;2024-02-28T12:29:35;94141.08;;;13.43;64.63
84492;BME280;74718;40.778;21.400;2024-02-28T12:32:01;94137.65;;;13.41;64.45
84492;BME280;74718;40.778;21.400;2024-02-28T12:34:26;94141.10;;;13.40;64.50
84492;BME280;74718;40.778;21.400;2024-02-28T12:36:52;94141.80;;;13.37;64.31
84492;BME280;74718;40.778;21.400;2024-02-28T12:39:17;94135.36;;;13.39;64.45
84492;BME280;74718;40.778;21.400;2024-02-28T12:41:43;94136.33;;;13.46;64.40
84492;BME280;74718;40.778;21.400;2024-02-28T12:44:08;94135.84;;;13.51;64.41
84492;BME280;74718;40.778;21.400;2024-02-28T12:46:36;94131.48;;;13.54;64.45